createdAt,value
2023-04-15T18:35:24.599Z,2.45
2023-04-15T18:37:57.310Z,2.28
2023-04-15T18:40:38.106Z,2.15
2023-04-15T18:43:10.767Z,2.72
2023-04-15T18:46:02.386Z,2.25
2023-04-15T18:48:41.275Z,2.10
2023-04-15T18:51:38.353Z,2.30
2023-04-15T18:53:56.594Z,2.10
2023-04-15T18:56:24.795Z,2.20
2023-04-15T18:59:27.779Z,2.58
2023-04-15T19:01:41.896Z,1.92
2023-04-15T19:04:11.649Z,2.90
2023-04-15T19:06:38.424Z,2.53
2023-04-15T19:09:09.885Z,3.00
2023-04-15T19:11:44.206Z,3.17
2023-04-15T19:14:25.402Z,2.28
2023-04-15T19:17:07.342Z,2.00
2023-04-15T20:29:41.853Z,3.78
2023-04-15T20:32:11.619Z,4.60
2023-04-15T20:34:42.207Z,4.22
2023-04-15T20:37:09.197Z,4.03
2023-04-15T20:39:36.102Z,3.85
2023-04-15T20:42:10.654Z,4.88
2023-04-15T20:44:49.356Z,3.72
2023-04-15T20:47:16.119Z,3.88
2023-04-15T20:49:43.116Z,4.18
2023-04-15T20:52:12.281Z,4.43
2023-04-15T20:54:38.989Z,3.08
2023-04-15T20:57:05.837Z,4.35
2023-04-15T20:59:36.044Z,3.90
2023-04-15T21:04:35.958Z,4.63
2023-04-15T21:07:05.058Z,4.88
2023-04-15T21:09:31.815Z,4.45
2023-04-15T21:12:01.451Z,5.00
2023-04-15T21:14:40.353Z,5.20
2023-04-15T21:17:11.117Z,4.60
2023-04-15T21:19:41.791Z,4.50
2023-04-15T21:22:08.666Z,5.13
2023-04-15T21:24:40.212Z,5.97
2023-04-15T21:27:08.273Z,5.10
2023-04-15T21:29:40.396Z,5.43
2023-04-15T21:32:07.294Z,5.25
2023-04-15T21:34:37.489Z,5.18
2023-04-15T21:39:32.789Z,5.05
2023-04-15T21:41:59.682Z,4.88
2023-04-15T21:44:30.798Z,5.03
2023-04-15T21:46:57.622Z,5.18
2023-04-15T21:49:26.622Z,5.50
2023-04-15T21:51:53.319Z,5.00
2023-04-15T21:54:20.089Z,5.13
2023-04-15T21:56:49.845Z,5.22
2023-04-15T21:59:16.733Z,4.47
2023-04-15T22:01:48.017Z,5.22
2023-04-15T22:04:20.946Z,5.90
2023-04-15T22:06:49.855Z,5.25
2023-04-15T22:09:25.055Z,4.93
2023-04-15T22:11:54.156Z,5.85
2023-04-15T22:14:22.211Z,5.68
2023-04-15T22:16:51.281Z,5.47
2023-04-15T22:19:20.598Z,5.18
2023-04-15T22:21:47.435Z,5.50
2023-04-15T22:24:38.869Z,5.40
2023-04-15T22:27:03.321Z,6.50
2023-04-15T22:29:30.267Z,5.78
2023-04-15T22:31:59.285Z,5.78
2023-04-15T22:34:28.315Z,5.43
2023-04-15T22:36:56.348Z,4.78
2023-04-15T22:39:25.059Z,5.03
2023-04-15T22:42:00.675Z,5.55
2023-04-15T22:44:29.823Z,5.63
2023-04-15T22:47:00.012Z,3.97
2023-04-15T22:51:55.971Z,4.85
2023-04-15T22:54:22.608Z,5.30
2023-04-15T22:56:51.987Z,5.68
2023-04-15T22:59:47.853Z,5.82
2023-04-15T23:02:14.751Z,5.18
2023-04-15T23:04:46.460Z,5.35
2023-04-15T23:07:14.090Z,4.97
2023-04-15T23:09:43.446Z,5.05
2023-04-15T23:12:13.358Z,5.85
2023-04-15T23:14:40.124Z,3.65
2023-04-15T23:17:10.308Z,5.25
2023-04-15T23:22:05.226Z,4.60
2023-04-15T23:24:33.242Z,6.28
2023-04-15T23:27:10.966Z,5.47
2023-04-15T23:29:42.011Z,5.25
2023-04-15T23:32:10.063Z,5.55
2023-04-15T23:34:37.801Z,6.10
2023-04-15T23:37:07.098Z,6.03
2023-04-15T23:39:34.183Z,5.50
2023-04-15T23:42:09.366Z,5.90
2023-04-15T23:44:40.856Z,6.10
2023-04-15T23:47:14.982Z,5.70
2023-04-15T23:49:46.127Z,5.85
2023-04-15T23:52:17.570Z,5.78
2023-04-15T23:54:44.402Z,5.80
2023-04-15T23:57:18.794Z,5.45
2023-04-15T23:59:53.039Z,6.00
